createdAt,value
2023-04-04T00:00:59.279Z,12.02
2023-04-04T00:03:31.033Z,12.00
2023-04-04T00:05:57.686Z,11.93
2023-04-04T00:08:29.501Z,11.82
2023-04-04T00:11:00.108Z,10.73
2023-04-04T00:13:27.122Z,11.30
2023-04-04T00:15:58.873Z,10.63
2023-04-04T00:18:25.769Z,10.73
2023-04-04T00:20:55.534Z,10.82
2023-04-04T00:23:29.941Z,10.90
2023-04-04T00:25:59.590Z,11.50
2023-04-04T00:28:26.581Z,11.05
2023-04-04T00:30:53.555Z,10.23
2023-04-04T00:33:25.658Z,10.30
2023-04-04T00:35:54.847Z,11.35
2023-04-04T00:38:23.652Z,10.23
2023-04-04T00:40:50.499Z,9.93
2023-04-04T00:43:19.497Z,10.38
2023-04-04T00:45:46.730Z,9.80
2023-04-04T00:48:13.504Z,9.93
2023-04-04T00:50:40.294Z,9.43
2023-04-04T00:53:07.452Z,10.07
2023-04-04T00:55:36.307Z,9.52
2023-04-04T00:58:05.274Z,9.80
2023-04-04T01:00:42.432Z,9.70
2023-04-04T01:03:14.292Z,9.45
2023-04-04T01:05:43.108Z,9.30
2023-04-04T01:08:11.954Z,8.82
2023-04-04T01:10:41.760Z,8.88
2023-04-04T01:13:10.834Z,9.07
2023-04-04T01:18:27.654Z,8.80
2023-04-04T01:21:02.299Z,8.95
2023-04-04T01:24:05.098Z,9.43
2023-04-04T01:26:37.576Z,8.65
2023-04-04T01:29:06.381Z,8.82
2023-04-04T01:31:44.913Z,8.40
2023-04-04T01:34:27.017Z,8.68
2023-04-04T01:36:57.016Z,8.65
2023-04-04T01:39:37.040Z,8.05
2023-04-04T01:42:10.097Z,7.32
2023-04-04T01:44:42.501Z,7.28
2023-04-04T01:47:15.308Z,7.75
2023-04-04T01:49:46.593Z,7.85
2023-04-04T01:54:42.139Z,8.07
2023-04-04T01:57:08.797Z,7.60
2023-04-04T01:59:37.742Z,7.28
2023-04-04T02:02:06.636Z,7.35
2023-04-04T02:04:35.774Z,7.20
2023-04-04T02:07:05.180Z,6.63
2023-04-04T02:09:39.025Z,7.80
2023-04-04T02:12:08.383Z,6.93
2023-04-04T02:14:35.834Z,7.18
2023-04-04T02:17:02.496Z,7.20
2023-04-04T02:19:32.195Z,7.00
2023-04-04T02:21:58.851Z,6.72
2023-04-04T02:24:27.937Z,6.93
2023-04-04T02:26:54.664Z,6.32
2023-04-04T02:29:23.732Z,6.43
2023-04-04T02:31:52.729Z,6.75
2023-04-04T02:34:19.414Z,6.32
2023-04-04T02:36:51.166Z,7.25
2023-04-04T02:39:20.040Z,6.85
2023-04-04T02:41:54.439Z,6.55
2023-04-04T02:44:23.191Z,5.80
2023-04-04T02:46:54.748Z,5.95
2023-04-04T02:49:21.632Z,6.38
2023-04-04T02:51:50.721Z,6.30
2023-04-04T02:54:19.483Z,5.80
2023-04-04T02:56:46.096Z,6.30
2023-04-04T02:59:12.805Z,5.70
2023-04-04T03:01:39.790Z,5.85
2023-04-04T03:04:07.146Z,5.82
2023-04-04T03:09:15.169Z,5.70
2023-04-04T03:11:46.765Z,5.72
2023-04-04T03:14:15.589Z,5.50
2023-04-04T03:16:50.788Z,5.60
2023-04-04T03:19:19.908Z,5.82
2023-04-04T03:21:48.726Z,5.85
2023-04-04T03:24:17.689Z,5.38
2023-04-04T03:26:46.540Z,5.78
2023-04-04T03:29:15.433Z,5.10
2023-04-04T03:31:46.867Z,5.05
2023-04-04T03:34:17.641Z,5.30
2023-04-04T03:36:47.497Z,5.38
2023-04-04T03:39:17.057Z,5.07
2023-04-04T03:41:44.301Z,5.05
2023-04-04T03:44:11.659Z,5.25
2023-04-04T03:46:40.306Z,5.28
2023-04-04T03:49:12.182Z,5.47
2023-04-04T03:51:43.469Z,5.00
2023-04-04T03:54:10.056Z,5.13
2023-04-04T03:56:36.686Z,4.93
2023-04-04T03:59:03.432Z,4.93
2023-04-04T04:01:32.759Z,5.28
2023-04-04T04:04:01.196Z,4.75
2023-04-04T04:06:30.228Z,4.80
2023-04-04T04:09:02.036Z,4.93
2023-04-04T04:11:31.782Z,4.80
2023-04-04T04:14:03.677Z,5.00
2023-04-04T04:16:32.509Z,4.70
2023-04-04T04:18:59.195Z,4.40
2023-04-04T04:21:28.728Z,4.65
2023-04-04T04:24:00.142Z,4.72
2023-04-04T04:26:29.102Z,4.78
2023-04-04T04:28:57.972Z,4.50
2023-04-04T04:31:26.999Z,4.53
2023-04-04T04:33:58.359Z,4.68
2023-04-04T04:36:27.481Z,4.55
2023-04-04T04:38:56.314Z,4.68
2023-04-04T04:41:23.123Z,4.10
2023-04-04T04:43:52.643Z,4.20
2023-04-04T04:46:19.260Z,4.30
2023-04-04T04:48:48.215Z,4.28
2023-04-04T04:51:17.676Z,4.40
2023-04-04T04:53:49.497Z,4.68
2023-04-04T04:56:18.574Z,4.25
2023-04-04T04:58:47.607Z,4.65
2023-04-04T05:01:16.593Z,4.20
2023-04-04T05:03:43.215Z,4.05
2023-04-04T05:06:14.598Z,3.83
2023-04-04T05:08:43.399Z,3.90
2023-04-04T05:11:12.711Z,4.10
2023-04-04T05:13:42.653Z,3.95
2023-04-04T05:16:11.712Z,4.10
2023-04-04T05:18:38.604Z,4.00
2023-04-04T05:21:10.521Z,3.63
2023-04-04T05:23:39.935Z,3.97
2023-04-04T05:26:06.680Z,3.85
2023-04-04T05:28:35.562Z,3.85
2023-04-04T05:31:04.540Z,4.03
2023-04-04T05:33:36.262Z,3.90
2023-04-04T05:38:57.412Z,3.92
2023-04-04T05:41:26.345Z,3.83
2023-04-04T05:43:55.138Z,3.88
2023-04-04T05:46:24.663Z,4.00
2023-04-04T05:48:54.290Z,3.78
2023-04-04T05:51:21.032Z,4.07
2023-04-04T05:53:47.833Z,3.63
2023-04-04T05:56:14.661Z,3.58
2023-04-04T05:58:43.441Z,3.72
2023-04-04T06:01:15.010Z,3.88
2023-04-04T06:03:41.743Z,7.75
2023-04-04T06:06:10.190Z,7.70
2023-04-04T06:08:52.395Z,8.57
2023-04-04T06:11:23.595Z,9.20
2023-04-04T06:13:55.830Z,9.07
2023-04-04T06:16:24.678Z,10.00
2023-04-04T06:18:52.708Z,9.57
2023-04-04T06:21:20.687Z,10.38
2023-04-04T06:26:28.429Z,10.52
2023-04-04T06:28:57.648Z,9.98
2023-04-04T06:31:29.578Z,9.30
2023-04-04T06:34:01.531Z,8.82
2023-04-04T06:36:32.901Z,6.93
2023-04-04T06:39:01.789Z,6.60
2023-04-04T06:41:28.486Z,6.15
2023-04-04T06:43:59.860Z,5.50
2023-04-04T06:46:30.244Z,5.78
2023-04-04T06:48:59.082Z,4.73
2023-04-04T06:51:25.870Z,5.85
2023-04-04T06:53:57.553Z,5.45
2023-04-04T06:56:24.334Z,5.70
2023-04-04T06:58:57.036Z,5.88
2023-04-04T07:01:23.764Z,5.90
2023-04-04T07:03:54.168Z,6.43
2023-04-04T07:06:25.931Z,6.60
2023-04-04T07:08:55.008Z,6.38
2023-04-04T07:11:24.321Z,6.75
2023-04-04T07:13:51.144Z,7.03
2023-04-04T07:16:20.112Z,7.05
2023-04-04T07:18:48.891Z,7.93
2023-04-04T07:23:53.735Z,8.30
2023-04-04T07:26:24.185Z,8.50
2023-04-04T07:28:53.044Z,8.87
2023-04-04T07:33:59.601Z,9.13
2023-04-04T07:36:31.760Z,8.75
2023-04-04T07:39:04.040Z,9.35
2023-04-04T07:41:30.773Z,9.90
2023-04-04T07:44:01.780Z,9.85
2023-04-04T07:46:33.306Z,10.02
2023-04-04T07:49:02.467Z,10.05
2023-04-04T07:51:31.716Z,10.90
2023-04-04T07:54:04.206Z,10.68
2023-04-04T07:56:33.185Z,11.05
2023-04-04T07:59:04.586Z,11.50
2023-04-04T08:01:33.502Z,12.13
2023-04-04T08:04:02.882Z,11.15
2023-04-04T08:06:32.079Z,12.35
2023-04-04T08:08:59.192Z,11.80
2023-04-04T08:11:28.630Z,11.45
2023-04-04T08:13:55.665Z,11.73
2023-04-04T08:16:27.013Z,12.68
2023-04-04T08:18:56.070Z,11.70
2023-04-04T08:21:23.228Z,12.50
2023-04-04T08:23:50.494Z,12.23
2023-04-04T08:26:19.276Z,12.73
2023-04-04T08:28:48.129Z,12.25
2023-04-04T08:31:20.035Z,12.88
2023-04-04T08:33:49.012Z,12.25
2023-04-04T08:36:17.899Z,12.55
2023-04-04T08:38:49.286Z,13.70
2023-04-04T08:41:23.221Z,13.35
2023-04-04T08:43:54.579Z,13.48
2023-04-04T08:46:27.527Z,13.43
2023-04-04T08:48:56.546Z,14.23
2023-04-04T08:51:23.222Z,14.38
2023-04-04T08:53:55.901Z,13.77
2023-04-04T08:56:25.197Z,14.32
2023-04-04T08:58:56.594Z,15.45
2023-04-04T09:01:23.605Z,13.55
2023-04-04T09:03:52.619Z,14.80
2023-04-04T09:06:20.151Z,14.13
2023-04-04T09:08:46.820Z,15.00
2023-04-04T09:11:13.528Z,15.00
2023-04-04T09:13:42.731Z,15.38
2023-04-04T09:16:11.923Z,14.82
2023-04-04T09:18:43.247Z,14.60
2023-04-04T09:21:13.049Z,14.73
2023-04-04T09:23:43.826Z,14.02
2023-04-04T09:26:13.412Z,14.82
2023-04-04T09:28:43.086Z,15.40
2023-04-04T09:31:12.403Z,14.13
2023-04-04T09:33:39.323Z,13.90
2023-04-04T09:36:12.890Z,14.40
2023-04-04T09:38:43.281Z,13.15
2023-04-04T09:41:12.477Z,13.70
2023-04-04T09:43:39.865Z,13.68
2023-04-04T09:46:10.900Z,13.40
2023-04-04T09:48:45.484Z,13.23
2023-04-04T09:51:12.856Z,13.07
2023-04-04T09:53:42.456Z,12.90
2023-04-04T09:56:11.409Z,13.10
2023-04-04T09:58:46.260Z,13.25
2023-04-04T10:01:19.447Z,13.23
2023-04-04T10:03:54.382Z,12.82
2023-04-04T10:06:24.583Z,13.10
2023-04-04T10:08:56.650Z,12.82
2023-04-04T10:11:36.297Z,12.45
2023-04-04T10:14:05.722Z,13.07
2023-04-04T10:16:37.935Z,12.77
2023-04-04T10:19:07.973Z,12.35
2023-04-04T10:21:37.512Z,12.25
2023-04-04T10:24:09.922Z,12.00
2023-04-04T10:26:37.292Z,12.60
2023-04-04T10:29:09.310Z,12.38
2023-04-04T10:31:40.772Z,11.77
2023-04-04T10:34:22.742Z,12.00
2023-04-04T10:36:54.148Z,12.18
2023-04-04T10:39:28.310Z,12.95
2023-04-04T10:41:56.616Z,12.57
2023-04-04T10:44:41.748Z,12.25
2023-04-04T10:47:16.643Z,13.10
2023-04-04T10:49:46.744Z,12.77
2023-04-04T10:52:23.001Z,12.55
2023-04-04T10:54:57.140Z,13.05
2023-04-04T10:57:23.925Z,14.15
2023-04-04T11:00:13.191Z,13.38
2023-04-04T11:02:50.398Z,13.70
2023-04-04T11:05:56.171Z,13.20
2023-04-04T11:08:27.506Z,13.90
2023-04-04T11:10:59.450Z,14.60
2023-04-04T11:13:37.898Z,14.07
2023-04-04T11:16:07.929Z,13.95
2023-04-04T11:18:42.860Z,13.95
2023-04-04T11:21:20.345Z,15.07
2023-04-04T11:23:50.319Z,13.75
2023-04-04T11:26:26.248Z,14.77
2023-04-04T11:28:57.621Z,14.35
2023-04-04T11:31:28.992Z,14.93
2023-04-04T11:34:14.436Z,15.18
2023-04-04T11:36:45.266Z,15.48
2023-04-04T11:39:21.144Z,14.77
2023-04-04T11:42:13.599Z,15.73
2023-04-04T11:44:43.164Z,14.20
2023-04-04T11:47:11.442Z,15.38
2023-04-04T11:49:40.963Z,15.02
2023-04-04T11:52:20.350Z,15.73
2023-04-04T11:54:47.833Z,15.77
2023-04-04T11:57:18.016Z,15.88
2023-04-04T11:59:52.343Z,14.27
2023-04-04T12:02:27.410Z,15.18
2023-04-04T12:04:54.377Z,15.75
2023-04-04T12:07:21.101Z,15.75
2023-04-04T12:09:48.324Z,15.50
2023-04-04T12:12:16.433Z,15.88
2023-04-04T12:14:45.855Z,16.20
2023-04-04T12:17:12.524Z,15.98
2023-04-04T12:19:39.798Z,16.35
2023-04-04T12:22:11.896Z,11.07
2023-04-04T12:24:38.682Z,7.10
2023-04-04T12:27:13.106Z,6.32
2023-04-04T12:29:45.519Z,5.72
2023-04-04T12:32:14.411Z,8.98
2023-04-04T12:34:49.892Z,12.60
2023-04-04T12:37:21.771Z,11.27
2023-04-04T12:39:51.232Z,12.85
2023-04-04T12:42:23.095Z,12.55
2023-04-04T12:47:55.211Z,13.23
2023-04-04T12:50:29.832Z,10.70
2023-04-04T12:53:27.887Z,13.45
2023-04-04T12:56:03.207Z,13.60
2023-04-04T12:58:30.019Z,12.52
2023-04-04T13:01:04.955Z,13.40
2023-04-04T13:03:33.881Z,13.50
2023-04-04T13:06:02.648Z,13.10
2023-04-04T13:08:31.728Z,13.93
2023-04-04T13:11:06.330Z,14.00
2023-04-04T13:13:40.226Z,13.27
2023-04-04T13:16:11.714Z,13.23
2023-04-04T13:21:16.062Z,12.57
2023-04-04T13:23:42.807Z,14.02
2023-04-04T13:26:12.590Z,12.63
2023-04-04T13:28:39.318Z,12.73
2023-04-04T13:31:08.482Z,13.00
2023-04-04T13:33:35.863Z,13.38
2023-04-04T13:36:05.586Z,13.55
2023-04-04T13:38:37.216Z,13.48
2023-04-04T13:41:07.053Z,13.50
2023-04-04T13:43:33.893Z,13.60
2023-04-04T13:46:06.114Z,13.25
2023-04-04T13:48:37.586Z,12.85
2023-04-04T13:51:06.365Z,13.13
2023-04-04T13:53:37.742Z,13.80
2023-04-04T13:58:38.703Z,12.60
2023-04-04T14:01:10.067Z,13.88
2023-04-04T14:03:39.137Z,13.57
2023-04-04T14:06:10.271Z,13.35
2023-04-04T14:08:40.567Z,14.27
2023-04-04T14:11:07.634Z,14.13
2023-04-04T14:13:37.444Z,13.63
2023-04-04T14:16:11.318Z,13.55
2023-04-04T14:18:41.049Z,13.68
2023-04-04T14:21:10.712Z,14.30
2023-04-04T14:23:42.008Z,13.55
2023-04-04T14:26:11.257Z,13.48
2023-04-04T14:28:40.859Z,13.23
2023-04-04T14:31:11.252Z,12.45
2023-04-04T14:33:41.647Z,13.20
2023-04-04T14:36:09.892Z,12.43
2023-04-04T14:38:41.955Z,12.50
2023-04-04T14:41:13.974Z,12.40
2023-04-04T14:43:41.939Z,13.02
2023-04-04T14:46:08.855Z,13.32
2023-04-04T14:48:37.708Z,12.48
2023-04-04T14:51:06.392Z,12.45
2023-04-04T14:53:40.767Z,12.50
2023-04-04T14:56:08.691Z,11.98
2023-04-04T14:58:36.318Z,10.90
2023-04-04T15:01:05.333Z,11.60
2023-04-04T15:03:36.700Z,11.55
2023-04-04T15:06:09.335Z,11.85
2023-04-04T15:08:43.882Z,11.52
2023-04-04T15:11:14.645Z,11.85
2023-04-04T15:13:43.265Z,10.88
2023-04-04T15:16:13.886Z,11.38
2023-04-04T15:18:43.851Z,10.30
2023-04-04T15:21:18.225Z,10.90
2023-04-04T15:23:47.216Z,10.25
2023-04-04T15:26:17.455Z,10.73
2023-04-04T15:28:49.178Z,11.65
2023-04-04T15:31:18.048Z,10.13
2023-04-04T15:33:59.765Z,10.23
2023-04-04T15:36:58.366Z,10.60
2023-04-04T15:39:27.508Z,10.18
2023-04-04T15:42:00.062Z,10.13
2023-04-04T15:44:30.500Z,10.68
2023-04-04T15:47:09.392Z,9.98
2023-04-04T15:49:41.819Z,10.25
2023-04-04T15:52:15.553Z,8.98
2023-04-04T15:54:48.749Z,9.80
2023-04-04T15:57:18.253Z,9.85
2023-04-04T15:59:48.413Z,9.82
2023-04-04T16:02:20.322Z,9.55
2023-04-04T16:04:47.267Z,9.48
2023-04-04T16:07:16.148Z,8.73
2023-04-04T16:09:46.364Z,8.88
2023-04-04T16:12:15.090Z,8.75
2023-04-04T16:14:48.694Z,9.15
2023-04-04T16:17:21.362Z,8.88
2023-04-04T16:19:52.670Z,8.68
2023-04-04T16:22:22.142Z,8.93
2023-04-04T16:24:53.915Z,8.98
2023-04-04T16:27:21.834Z,8.60
2023-04-04T16:29:51.468Z,8.30
2023-04-04T16:32:18.832Z,8.02
2023-04-04T16:34:48.842Z,7.93
2023-04-04T16:37:16.627Z,7.75
2023-04-04T16:39:49.700Z,8.43
2023-04-04T16:44:57.331Z,8.13
2023-04-04T16:47:27.679Z,8.00
2023-04-04T16:50:01.121Z,8.10
2023-04-04T16:52:33.114Z,7.78
2023-04-04T16:55:02.915Z,8.05
2023-04-04T16:57:30.056Z,6.93
2023-04-04T16:59:58.014Z,7.43
2023-04-04T17:02:33.669Z,7.75
2023-04-04T17:05:07.819Z,8.43
2023-04-04T17:07:40.706Z,8.40
2023-04-04T17:10:09.869Z,8.90
2023-04-04T17:12:37.566Z,9.60
2023-04-04T17:15:18.143Z,9.93
2023-04-04T17:17:47.331Z,10.97
2023-04-04T17:20:18.944Z,11.82
2023-04-04T17:22:53.971Z,13.05
2023-04-04T17:25:36.963Z,14.77
2023-04-04T17:28:06.810Z,16.00
2023-04-04T17:30:35.109Z,18.10
2023-04-04T17:33:04.382Z,17.85
2023-04-04T17:35:39.272Z,21.77
2023-04-04T17:38:13.875Z,23.27
2023-04-04T17:40:42.278Z,24.85
2023-04-04T17:43:13.727Z,28.00
2023-04-04T17:45:44.901Z,28.83
2023-04-04T17:48:14.204Z,26.98
2023-04-04T17:50:43.251Z,27.38
2023-04-04T17:53:12.168Z,25.73
2023-04-04T17:55:44.152Z,26.63
2023-04-04T17:58:16.126Z,25.55
2023-04-04T18:00:44.949Z,26.30
2023-04-04T18:03:12.809Z,25.50
2023-04-04T18:05:39.871Z,26.23
2023-04-04T18:08:06.481Z,25.27
2023-04-04T18:10:37.894Z,26.65
2023-04-04T18:13:07.451Z,25.58
2023-04-04T18:15:38.785Z,26.30
2023-04-04T18:18:06.413Z,27.25
2023-04-04T18:20:35.261Z,26.75
2023-04-04T18:23:04.959Z,26.40
2023-04-04T18:25:34.866Z,26.23
2023-04-04T18:28:04.145Z,24.77
2023-04-04T18:30:37.332Z,25.15
2023-04-04T18:33:06.827Z,21.88
2023-04-04T18:35:38.267Z,23.75
2023-04-04T18:38:06.100Z,23.67
2023-04-04T18:40:32.965Z,24.02
2023-04-04T18:43:01.862Z,23.45
2023-04-04T18:45:39.279Z,21.90
2023-04-04T18:48:09.333Z,21.92
2023-04-04T18:50:38.458Z,20.38
2023-04-04T18:53:05.312Z,21.65
2023-04-04T18:55:32.305Z,21.13
2023-04-04T18:58:01.157Z,21.55
2023-04-04T19:00:27.825Z,22.63
2023-04-04T19:02:57.151Z,19.38
2023-04-04T19:05:26.693Z,19.02
2023-04-04T19:07:55.542Z,20.50
2023-04-04T19:10:22.268Z,20.38
2023-04-04T19:12:51.126Z,20.42
2023-04-04T19:15:20.602Z,20.35
2023-04-04T19:17:49.568Z,21.23
2023-04-04T19:20:18.951Z,20.95
2023-04-04T19:22:45.998Z,20.70
2023-04-04T19:25:15.087Z,21.35
2023-04-04T19:27:41.796Z,20.83
2023-04-04T19:30:47.353Z,20.98
2023-04-04T19:33:20.152Z,19.52
2023-04-04T19:36:11.553Z,19.90
2023-04-04T19:41:13.254Z,20.30
2023-04-04T19:43:41.488Z,20.40
2023-04-04T19:46:09.575Z,21.08
2023-04-04T19:48:36.854Z,20.65
2023-04-04T19:51:10.754Z,19.60
2023-04-04T19:56:22.102Z,20.70
2023-04-04T19:59:01.187Z,20.00
2023-04-04T20:01:29.247Z,20.40
2023-04-04T20:04:03.770Z,20.23
2023-04-04T20:06:33.702Z,21.05
2023-04-04T20:09:02.005Z,21.20
2023-04-04T20:11:37.842Z,20.45
2023-04-04T20:14:11.016Z,18.75
2023-04-04T20:16:37.920Z,19.33
2023-04-04T20:19:08.291Z,20.10
2023-04-04T20:21:37.344Z,19.23
2023-04-04T20:24:08.196Z,19.67
2023-04-04T20:26:43.783Z,19.92
2023-04-04T20:29:13.585Z,19.58
2023-04-04T20:31:44.904Z,19.35
2023-04-04T20:34:43.771Z,18.08
2023-04-04T20:37:26.479Z,17.95
2023-04-04T20:39:56.017Z,18.67
2023-04-04T20:42:34.981Z,17.52
2023-04-04T20:45:13.665Z,18.77
2023-04-04T20:47:57.890Z,18.35
2023-04-04T20:50:27.248Z,18.13
2023-04-04T20:52:58.896Z,18.20
2023-04-04T20:55:28.506Z,18.08
2023-04-04T20:57:57.889Z,17.63
2023-04-04T21:00:34.095Z,17.35
2023-04-04T21:03:25.134Z,17.42
2023-04-04T21:05:59.499Z,16.77
2023-04-04T21:08:28.259Z,16.38
2023-04-04T21:10:58.058Z,16.63
2023-04-04T21:13:29.061Z,16.45
2023-04-04T21:16:01.382Z,16.15
2023-04-04T21:18:30.051Z,16.42
2023-04-04T21:21:06.007Z,15.77
2023-04-04T21:23:37.341Z,16.50
2023-04-04T21:26:05.075Z,16.58
2023-04-04T21:28:36.416Z,16.08
2023-04-04T21:31:12.166Z,16.08
2023-04-04T21:33:39.246Z,15.50
2023-04-04T21:36:06.103Z,15.38
2023-04-04T21:38:33.696Z,15.15
2023-04-04T21:41:24.242Z,15.23
2023-04-04T21:43:56.040Z,11.35
2023-04-04T21:46:28.659Z,9.73
2023-04-04T21:49:00.931Z,9.20
2023-04-04T21:51:33.188Z,9.05
2023-04-04T21:54:03.585Z,8.20
2023-04-04T21:56:37.199Z,8.50
2023-04-04T21:59:07.185Z,7.85
2023-04-04T22:01:34.011Z,7.63
2023-04-04T22:06:36.530Z,9.02
2023-04-04T22:09:17.527Z,9.95
2023-04-04T22:11:48.840Z,9.88
2023-04-04T22:16:47.528Z,9.57
2023-04-04T22:19:16.646Z,10.20
2023-04-04T22:21:48.491Z,9.30
2023-04-04T22:24:15.765Z,9.73
2023-04-04T22:26:47.327Z,9.95
2023-04-04T22:29:16.212Z,9.45
2023-04-04T22:31:45.411Z,8.98
2023-04-04T22:34:15.397Z,9.82
2023-04-04T22:36:42.258Z,9.50
2023-04-04T22:39:09.009Z,9.88
2023-04-04T22:41:35.786Z,9.13
2023-04-04T22:44:02.397Z,8.80
2023-04-04T22:46:33.760Z,9.45
2023-04-04T22:49:07.222Z,9.48
2023-04-04T22:51:44.217Z,9.55
2023-04-04T22:54:14.812Z,9.65
2023-04-04T22:56:44.258Z,9.00
2023-04-04T22:59:13.493Z,9.48
2023-04-04T23:01:42.418Z,9.10
2023-04-04T23:04:09.247Z,9.65
2023-04-04T23:06:39.801Z,9.88
2023-04-04T23:09:09.445Z,9.70
2023-04-04T23:11:41.249Z,9.07
2023-04-04T23:14:15.348Z,8.63
2023-04-04T23:16:45.200Z,8.80
2023-04-04T23:19:15.184Z,8.57
2023-04-04T23:21:42.307Z,8.02
2023-04-04T23:24:13.729Z,9.18
2023-04-04T23:26:45.106Z,8.90
2023-04-04T23:29:11.836Z,9.00
2023-04-04T23:31:40.841Z,8.70
2023-04-04T23:34:12.219Z,8.75
2023-04-04T23:39:10.763Z,8.40
2023-04-04T23:41:39.778Z,8.45
2023-04-04T23:44:09.819Z,8.45
2023-04-04T23:46:38.744Z,8.25
2023-04-04T23:49:11.474Z,8.85
2023-04-04T23:51:41.764Z,8.70
2023-04-04T23:54:11.775Z,8.75
2023-04-04T23:56:38.704Z,8.57
2023-04-04T23:59:07.985Z,8.30
